createdAt,value
2022-11-06T00:01:38.115Z,11.30
2022-11-06T00:04:07.182Z,11.30
2022-11-06T00:06:49.976Z,11.10
2022-11-06T00:09:20.892Z,11.20
2022-11-06T00:11:53.070Z,11.20
2022-11-06T00:14:21.931Z,10.90
2022-11-06T00:16:50.783Z,10.90
2022-11-06T00:19:38.201Z,10.90
2022-11-06T00:22:06.964Z,11.20
2022-11-06T00:24:35.734Z,11.30
2022-11-06T00:27:06.079Z,11.40
2022-11-06T00:29:34.854Z,11.50
2022-11-06T00:32:03.572Z,11.80
2022-11-06T00:34:32.504Z,11.80
2022-11-06T00:37:01.253Z,11.60
2022-11-06T00:39:30.134Z,11.40
2022-11-06T00:41:58.913Z,11.20
2022-11-06T00:44:29.166Z,10.90
2022-11-06T00:46:57.998Z,10.90
2022-11-06T00:49:26.836Z,10.80
2022-11-06T00:51:55.595Z,10.80
2022-11-06T00:54:24.783Z,10.30
2022-11-06T00:56:53.619Z,10.50
2022-11-06T00:59:22.398Z,10.70
2022-11-06T01:01:52.775Z,10.50
2022-11-06T01:04:23.788Z,10.30
2022-11-06T01:06:54.358Z,10.30
2022-11-06T01:09:25.742Z,10.50
2022-11-06T01:12:13.190Z,10.40
2022-11-06T01:14:43.904Z,10.40
2022-11-06T01:17:14.580Z,10.50
2022-11-06T01:19:43.364Z,10.50
2022-11-06T01:22:12.152Z,10.50
2022-11-06T01:24:41.223Z,10.50
2022-11-06T01:27:26.117Z,10.40
2022-11-06T01:29:55.823Z,9.90
2022-11-06T01:32:26.147Z,10.20
2022-11-06T01:34:54.946Z,10.40
2022-11-06T01:37:23.859Z,10.30
2022-11-06T01:39:52.589Z,10.30
2022-11-06T01:42:23.001Z,10.40
2022-11-06T01:45:21.494Z,10.40
2022-11-06T01:47:52.028Z,10.50
2022-11-06T01:50:21.588Z,10.50
2022-11-06T01:52:52.220Z,10.40
2022-11-06T01:55:25.464Z,10.50
2022-11-06T01:57:56.417Z,10.50
2022-11-06T02:00:26.321Z,10.40
2022-11-06T02:02:57.137Z,10.20
2022-11-06T02:05:26.105Z,10.10
2022-11-06T02:07:56.640Z,10.10
2022-11-06T02:10:25.573Z,10.00
2022-11-06T02:13:01.826Z,9.80
2022-11-06T02:15:41.412Z,10.50
2022-11-06T02:18:35.985Z,10.50
2022-11-06T02:21:36.777Z,10.60
2022-11-06T02:24:37.741Z,10.60
2022-11-06T02:27:12.458Z,10.50
2022-11-06T02:29:49.139Z,10.30
2022-11-06T02:32:22.847Z,10.10
2022-11-06T02:34:54.568Z,10.20
2022-11-06T02:37:29.900Z,9.90
2022-11-06T02:40:02.816Z,10.20
2022-11-06T02:42:36.287Z,10.20
2022-11-06T02:45:09.091Z,10.60
2022-11-06T02:47:39.988Z,10.10
2022-11-06T02:50:12.490Z,10.10
2022-11-06T02:52:46.770Z,10.00
2022-11-06T02:55:19.366Z,10.00
2022-11-06T02:57:55.595Z,10.20
2022-11-06T03:00:27.760Z,10.30
2022-11-06T03:03:00.703Z,10.00
2022-11-06T03:05:33.320Z,10.10
2022-11-06T03:08:10.597Z,10.20
2022-11-06T03:10:47.267Z,10.40
2022-11-06T03:13:22.024Z,10.40
2022-11-06T03:15:58.594Z,10.10
2022-11-06T03:18:36.274Z,10.50
2022-11-06T03:21:09.432Z,10.60
2022-11-06T03:23:41.709Z,10.50
2022-11-06T03:26:16.188Z,10.20
2022-11-06T03:28:53.188Z,10.20
2022-11-06T03:31:28.757Z,10.30
2022-11-06T03:34:03.022Z,10.70
2022-11-06T03:36:35.783Z,10.80
2022-11-06T03:39:08.630Z,10.60
2022-11-06T03:41:42.809Z,10.30
2022-11-06T03:44:16.553Z,10.40
2022-11-06T03:46:51.075Z,10.30
2022-11-06T03:49:27.136Z,10.30
2022-11-06T03:52:00.071Z,10.40
2022-11-06T03:54:33.772Z,10.20
2022-11-06T03:57:09.116Z,10.00
2022-11-06T03:59:44.305Z,10.00
2022-11-06T04:02:16.489Z,10.00
2022-11-06T04:04:50.604Z,9.80
2022-11-06T04:07:23.997Z,9.90
2022-11-06T04:10:15.848Z,10.00
2022-11-06T04:13:03.678Z,9.90
2022-11-06T04:15:39.306Z,10.00
2022-11-06T04:18:15.689Z,10.00
2022-11-06T04:21:10.807Z,10.20
2022-11-06T04:24:13.853Z,10.40
2022-11-06T04:26:53.209Z,10.30
2022-11-06T04:29:37.547Z,10.00
2022-11-06T04:32:13.101Z,9.60
2022-11-06T04:34:48.847Z,9.70
2022-11-06T04:37:23.407Z,9.90
2022-11-06T04:40:02.232Z,9.80
2022-11-06T04:42:37.431Z,9.70
2022-11-06T04:45:12.410Z,9.90
2022-11-06T04:47:44.508Z,10.10
2022-11-06T04:50:15.048Z,9.80
2022-11-06T04:52:45.110Z,9.60
2022-11-06T04:55:14.009Z,9.60
2022-11-06T04:57:42.849Z,9.60
2022-11-06T05:00:14.808Z,9.60
2022-11-06T05:02:45.173Z,9.60
2022-11-06T05:05:13.989Z,9.60
2022-11-06T05:07:42.909Z,9.60
2022-11-06T05:10:11.891Z,9.80
2022-11-06T05:12:40.730Z,9.90
2022-11-06T05:15:10.435Z,10.10
2022-11-06T05:17:39.187Z,10.40
2022-11-06T05:20:10.268Z,10.20
2022-11-06T05:23:00.835Z,10.10
2022-11-06T05:25:31.859Z,10.30
2022-11-06T05:28:01.343Z,10.40
2022-11-06T05:30:30.169Z,10.50
2022-11-06T05:32:59.049Z,10.40
2022-11-06T05:35:29.329Z,10.30
2022-11-06T05:38:01.330Z,10.40
2022-11-06T05:40:30.511Z,10.50
2022-11-06T05:42:59.390Z,10.60
2022-11-06T05:45:28.249Z,10.40
2022-11-06T05:47:57.141Z,10.30
2022-11-06T05:50:26.592Z,10.20
2022-11-06T05:52:56.882Z,10.10
2022-11-06T05:55:25.729Z,9.90
2022-11-06T05:57:54.509Z,9.80
2022-11-06T06:00:23.632Z,9.90
2022-11-06T06:02:52.538Z,9.80
2022-11-06T06:05:21.423Z,10.20
2022-11-06T06:07:50.294Z,9.90
2022-11-06T06:10:20.710Z,10.30
2022-11-06T06:12:51.326Z,10.30
2022-11-06T06:15:20.409Z,10.40
2022-11-06T06:17:49.330Z,10.40
2022-11-06T06:20:18.328Z,10.50
2022-11-06T06:22:55.429Z,10.20
2022-11-06T06:25:26.058Z,9.90
2022-11-06T06:27:55.330Z,9.80
2022-11-06T06:30:25.073Z,9.80
2022-11-06T06:32:54.750Z,9.80
2022-11-06T06:35:23.691Z,10.10
2022-11-06T06:37:54.469Z,10.00
2022-11-06T06:40:25.269Z,10.00
2022-11-06T06:42:56.951Z,10.10
2022-11-06T06:45:26.523Z,10.20
2022-11-06T06:47:55.353Z,9.10
2022-11-06T06:50:24.210Z,10.50
2022-11-06T06:52:57.351Z,10.50
2022-11-06T06:55:28.061Z,10.50
2022-11-06T06:58:00.804Z,10.60
2022-11-06T07:00:30.503Z,10.80
2022-11-06T07:02:59.439Z,11.00
2022-11-06T07:05:28.440Z,11.10
2022-11-06T07:07:58.019Z,11.10
2022-11-06T07:10:28.409Z,11.20
2022-11-06T07:12:57.320Z,11.40
2022-11-06T07:15:26.416Z,11.60
2022-11-06T07:17:55.322Z,11.60
2022-11-06T07:20:24.132Z,11.60
2022-11-06T07:22:52.964Z,11.90
2022-11-06T07:25:25.448Z,12.00
2022-11-06T07:28:00.327Z,12.30
2022-11-06T07:30:31.732Z,12.30
2022-11-06T07:33:02.811Z,12.30
2022-11-06T07:35:32.108Z,12.40
2022-11-06T07:38:00.848Z,12.60
2022-11-06T07:40:29.608Z,12.40
2022-11-06T07:43:05.826Z,12.60
2022-11-06T07:45:35.389Z,12.60
2022-11-06T07:48:04.859Z,12.80
2022-11-06T07:50:34.058Z,12.90
2022-11-06T07:53:04.531Z,13.60
2022-11-06T07:55:36.673Z,13.40
2022-11-06T07:58:11.679Z,13.30
2022-11-06T08:00:40.783Z,13.40
2022-11-06T08:03:09.619Z,13.50
2022-11-06T08:05:38.438Z,13.50
2022-11-06T08:08:07.401Z,13.60
2022-11-06T08:10:40.469Z,13.80
2022-11-06T08:13:11.090Z,13.80
2022-11-06T08:15:40.178Z,13.70
2022-11-06T08:18:09.826Z,13.70
2022-11-06T08:20:39.980Z,13.70
2022-11-06T08:23:11.998Z,13.90
2022-11-06T08:25:41.811Z,14.00
2022-11-06T08:28:12.467Z,14.00
2022-11-06T08:30:41.519Z,14.00
2022-11-06T08:33:13.119Z,14.10
2022-11-06T08:35:41.968Z,14.20
2022-11-06T08:38:10.972Z,14.50
2022-11-06T08:40:40.869Z,14.60
2022-11-06T08:43:12.370Z,14.60
2022-11-06T08:45:43.200Z,14.70
2022-11-06T08:48:13.839Z,14.70
2022-11-06T08:50:42.781Z,15.00
2022-11-06T08:53:11.955Z,15.00
2022-11-06T08:55:41.259Z,15.10
2022-11-06T08:58:11.621Z,15.10
2022-11-06T09:00:40.448Z,15.10
2022-11-06T09:03:12.461Z,15.00
2022-11-06T09:05:42.479Z,15.00
2022-11-06T09:08:13.659Z,15.00
2022-11-06T09:10:44.304Z,15.10
2022-11-06T09:13:14.841Z,15.10
2022-11-06T09:15:43.924Z,15.00
2022-11-06T09:18:13.300Z,15.20
2022-11-06T09:20:42.741Z,15.30
2022-11-06T09:23:12.056Z,15.20
2022-11-06T09:25:41.750Z,15.20
2022-11-06T09:28:11.183Z,15.20
2022-11-06T09:30:41.469Z,15.30
2022-11-06T09:33:13.509Z,15.20
2022-11-06T09:35:43.029Z,15.60
2022-11-06T09:38:15.547Z,15.20
2022-11-06T09:40:48.702Z,15.30
2022-11-06T09:46:25.992Z,15.50
2022-11-06T09:49:00.559Z,15.70
2022-11-06T09:51:41.719Z,15.60
2022-11-06T09:54:17.500Z,15.90
2022-11-06T09:56:49.331Z,15.70
2022-11-06T09:59:22.185Z,16.00
2022-11-06T10:01:55.753Z,16.00
2022-11-06T10:04:37.560Z,16.00
2022-11-06T10:07:06.409Z,15.90
2022-11-06T10:09:35.959Z,16.30
2022-11-06T10:12:15.018Z,15.90
2022-11-06T10:15:03.309Z,16.20
2022-11-06T10:17:43.865Z,16.40
2022-11-06T10:20:26.879Z,16.70
2022-11-06T10:23:05.450Z,16.50
2022-11-06T10:25:45.459Z,16.30
2022-11-06T10:28:28.180Z,16.40
2022-11-06T10:31:04.918Z,16.60
2022-11-06T10:33:47.001Z,16.80
2022-11-06T10:36:19.604Z,17.30
2022-11-06T10:38:51.134Z,17.50
2022-11-06T10:41:24.189Z,17.30
2022-11-06T10:43:56.399Z,17.10
2022-11-06T10:46:35.179Z,17.20
2022-11-06T10:49:13.159Z,17.40
2022-11-06T10:52:01.569Z,17.50
2022-11-06T10:54:52.440Z,17.90
2022-11-06T10:57:30.159Z,17.90
2022-11-06T10:59:59.343Z,18.10
2022-11-06T11:02:31.912Z,18.10
2022-11-06T11:05:02.450Z,17.90
2022-11-06T11:07:35.630Z,17.80
2022-11-06T11:10:28.159Z,18.10
2022-11-06T11:13:01.675Z,18.00
2022-11-06T11:15:35.101Z,18.00
2022-11-06T11:18:18.086Z,18.10
2022-11-06T11:20:49.271Z,18.30
2022-11-06T11:23:22.246Z,18.20
2022-11-06T11:25:53.042Z,18.90
2022-11-06T11:28:29.112Z,19.40
2022-11-06T11:31:06.093Z,18.80
2022-11-06T11:33:36.050Z,19.10
2022-11-06T11:36:08.601Z,18.70
2022-11-06T11:38:39.197Z,19.60
2022-11-06T11:41:10.044Z,19.70
2022-11-06T11:43:40.041Z,19.20
2022-11-06T11:46:26.959Z,19.10
2022-11-06T11:48:57.801Z,19.10
2022-11-06T11:51:37.259Z,19.60
2022-11-06T11:54:16.919Z,20.40
2022-11-06T11:57:04.159Z,21.20
2022-11-06T11:59:38.469Z,19.70
2022-11-06T12:02:20.910Z,19.60
2022-11-06T12:04:56.161Z,19.90
2022-11-06T12:07:29.640Z,20.00
2022-11-06T12:10:00.118Z,20.00
2022-11-06T12:12:32.327Z,19.60
2022-11-06T12:15:21.449Z,19.50
2022-11-06T12:17:55.999Z,19.70
2022-11-06T12:20:28.642Z,19.80
2022-11-06T12:23:01.249Z,19.70
2022-11-06T12:25:35.788Z,19.40
2022-11-06T12:28:12.339Z,19.70
2022-11-06T12:30:43.290Z,19.70
2022-11-06T12:33:15.789Z,20.00
2022-11-06T12:35:49.629Z,20.20
2022-11-06T12:38:28.595Z,20.60
2022-11-06T12:41:02.578Z,20.60
2022-11-06T12:43:38.822Z,20.00
2022-11-06T12:46:39.569Z,20.20
2022-11-06T12:49:37.322Z,19.80
2022-11-06T12:52:29.538Z,19.50
2022-11-06T12:55:13.611Z,19.50
2022-11-06T12:58:04.698Z,19.40
2022-11-06T13:00:44.192Z,19.10
2022-11-06T13:03:50.548Z,19.60
2022-11-06T13:06:25.873Z,19.60
2022-11-06T13:09:02.306Z,21.10
2022-11-06T13:11:43.627Z,21.70
2022-11-06T13:14:22.601Z,21.50
2022-11-06T13:17:01.949Z,20.30
2022-11-06T13:19:35.871Z,19.60
2022-11-06T13:22:21.259Z,19.50
2022-11-06T13:24:57.461Z,19.30
2022-11-06T13:27:35.817Z,19.70
2022-11-06T13:30:07.388Z,19.50
2022-11-06T13:32:39.048Z,19.70
2022-11-06T13:35:13.639Z,20.30
2022-11-06T13:37:45.426Z,19.30
2022-11-06T13:40:33.758Z,19.20
2022-11-06T13:43:09.368Z,19.50
2022-11-06T13:45:48.869Z,20.20
2022-11-06T13:48:35.978Z,19.70
2022-11-06T13:51:15.629Z,19.70
2022-11-06T13:53:52.817Z,19.90
2022-11-06T13:56:36.878Z,19.40
2022-11-06T13:59:29.826Z,20.30
2022-11-06T14:02:29.026Z,20.30
2022-11-06T14:05:48.489Z,21.10
2022-11-06T14:08:20.528Z,20.40
2022-11-06T14:10:54.473Z,21.10
2022-11-06T14:13:29.020Z,21.20
2022-11-06T14:16:05.248Z,20.60
2022-11-06T14:18:35.117Z,19.90
2022-11-06T14:21:52.372Z,19.90
2022-11-06T14:24:39.231Z,19.60
2022-11-06T14:27:12.899Z,20.40
2022-11-06T14:30:01.057Z,19.80
2022-11-06T14:32:49.193Z,20.30
2022-11-06T14:35:59.529Z,21.60
2022-11-06T14:38:38.708Z,21.70
2022-11-06T14:41:50.288Z,22.00
2022-11-06T14:44:34.498Z,21.40
2022-11-06T14:47:07.095Z,21.90
2022-11-06T14:49:42.246Z,20.60
2022-11-06T14:52:13.682Z,20.30
2022-11-06T14:54:50.888Z,20.20
2022-11-06T14:57:35.396Z,20.00
2022-11-06T15:00:05.298Z,19.60
2022-11-06T15:02:37.485Z,19.50
2022-11-06T15:05:14.008Z,19.20
2022-11-06T15:08:05.996Z,18.70
2022-11-06T15:10:55.312Z,18.70
2022-11-06T15:13:33.973Z,18.60
2022-11-06T15:16:13.397Z,18.60
2022-11-06T15:18:45.230Z,18.40
2022-11-06T15:21:24.137Z,18.00
2022-11-06T15:24:04.199Z,18.00
2022-11-06T15:26:38.777Z,17.90
2022-11-06T15:29:19.456Z,17.60
2022-11-06T15:31:50.814Z,17.60
2022-11-06T15:34:27.272Z,17.50
2022-11-06T15:37:06.356Z,17.40
2022-11-06T15:39:41.855Z,17.30
2022-11-06T15:42:13.356Z,17.10
2022-11-06T15:44:45.331Z,17.00
2022-11-06T15:47:22.856Z,16.60
2022-11-06T15:50:11.418Z,16.80
2022-11-06T15:52:41.713Z,16.70
2022-11-06T15:55:23.386Z,16.50
2022-11-06T15:57:53.995Z,16.30
2022-11-06T16:00:25.609Z,16.30
2022-11-06T16:03:04.160Z,16.30
2022-11-06T16:05:35.254Z,16.20
2022-11-06T16:08:07.407Z,16.10
2022-11-06T16:10:38.650Z,15.90
2022-11-06T16:13:07.947Z,15.80
2022-11-06T16:15:51.537Z,15.70
2022-11-06T16:18:25.416Z,15.70
2022-11-06T16:20:58.158Z,15.60
2022-11-06T16:23:38.621Z,15.70
2022-11-06T16:26:10.329Z,12.90
2022-11-06T16:28:44.488Z,15.50
2022-11-06T16:31:17.130Z,15.30
2022-11-06T16:33:56.253Z,15.20
2022-11-06T16:36:25.919Z,15.00
2022-11-06T16:39:08.051Z,14.70
2022-11-06T16:42:03.476Z,14.50
2022-11-06T16:44:46.706Z,14.30
2022-11-06T16:47:18.044Z,14.50
2022-11-06T16:49:53.631Z,14.30
2022-11-06T16:52:27.696Z,14.30
2022-11-06T16:55:01.179Z,14.30
2022-11-06T16:57:32.566Z,14.10
2022-11-06T17:00:06.211Z,13.80
2022-11-06T17:02:38.329Z,14.00
2022-11-06T17:05:15.787Z,13.90
2022-11-06T17:07:46.402Z,13.90
2022-11-06T17:10:43.788Z,13.80
2022-11-06T17:13:15.878Z,13.80
2022-11-06T17:15:47.216Z,13.70
2022-11-06T17:18:18.668Z,13.50
2022-11-06T17:20:54.837Z,13.60
2022-11-06T17:23:24.547Z,13.60
2022-11-06T17:25:58.033Z,13.60
2022-11-06T17:28:27.585Z,13.40
2022-11-06T17:30:56.769Z,13.40
2022-11-06T17:33:25.892Z,13.50
2022-11-06T17:35:54.751Z,13.50
2022-11-06T17:38:23.588Z,13.20
2022-11-06T17:40:52.409Z,12.80
2022-11-06T17:43:22.648Z,12.40
2022-11-06T17:45:51.460Z,12.80
2022-11-06T17:48:20.238Z,13.00
2022-11-06T17:51:06.534Z,12.80
2022-11-06T17:53:35.338Z,12.80
2022-11-06T17:56:05.845Z,13.00
2022-11-06T17:58:36.591Z,13.80
2022-11-06T18:01:10.941Z,13.30
2022-11-06T18:03:45.177Z,13.30
2022-11-06T18:06:15.485Z,13.40
2022-11-06T18:08:45.032Z,13.30
2022-11-06T18:11:14.394Z,13.30
2022-11-06T18:13:45.522Z,13.40
2022-11-06T18:16:19.222Z,13.40
2022-11-06T18:18:48.368Z,13.30
2022-11-06T18:21:17.637Z,13.10
2022-11-06T18:23:47.024Z,13.00
2022-11-06T18:26:15.946Z,13.00
2022-11-06T18:28:46.301Z,13.10
2022-11-06T18:31:15.361Z,13.00
2022-11-06T18:33:44.271Z,13.10
2022-11-06T18:36:14.127Z,13.10
2022-11-06T18:38:43.970Z,13.00
2022-11-06T18:41:14.521Z,13.10
2022-11-06T18:43:43.821Z,13.00
2022-11-06T18:46:15.971Z,13.00
2022-11-06T18:48:45.396Z,13.00
2022-11-06T18:51:23.653Z,12.90
2022-11-06T18:54:05.940Z,13.10
2022-11-06T18:56:36.282Z,13.20
2022-11-06T18:59:06.368Z,13.20
2022-11-06T19:01:36.927Z,13.00
2022-11-06T19:04:06.688Z,13.00
2022-11-06T19:06:36.110Z,13.00
2022-11-06T19:09:06.069Z,13.00
2022-11-06T19:11:35.299Z,13.10
2022-11-06T19:14:03.990Z,13.10
2022-11-06T19:16:32.900Z,12.90
2022-11-06T19:19:06.713Z,12.90
2022-11-06T19:21:36.286Z,13.10
2022-11-06T19:24:06.633Z,13.20
2022-11-06T19:26:36.951Z,12.90
2022-11-06T19:29:08.279Z,12.80
2022-11-06T19:31:38.260Z,12.90
2022-11-06T19:34:09.821Z,12.90
2022-11-06T19:36:38.807Z,12.70
2022-11-06T19:39:08.204Z,10.50
2022-11-06T19:41:36.998Z,12.80
2022-11-06T19:44:06.109Z,12.70
2022-11-06T19:46:36.289Z,12.50
2022-11-06T19:49:10.186Z,12.60
2022-11-06T19:51:41.230Z,12.60
2022-11-06T19:54:11.348Z,12.70
2022-11-06T19:57:27.101Z,12.80
2022-11-06T19:59:29.056Z,12.80
2022-11-06T20:01:58.050Z,12.90
2022-11-06T20:04:28.350Z,12.60
2022-11-06T20:06:57.259Z,12.80
2022-11-06T20:09:26.044Z,12.70
2022-11-06T20:11:54.818Z,12.90
2022-11-06T20:14:23.769Z,12.80
2022-11-06T20:16:52.963Z,12.90
2022-11-06T20:19:22.048Z,13.10
2022-11-06T20:21:52.266Z,15.10
2022-11-06T20:24:21.114Z,13.10
2022-11-06T20:26:49.849Z,13.10
2022-11-06T20:29:18.705Z,13.10
2022-11-06T20:31:47.575Z,13.10
2022-11-06T20:34:17.286Z,13.10
2022-11-06T20:36:46.175Z,13.20
2022-11-06T20:39:19.473Z,13.10
2022-11-06T20:41:48.436Z,12.80
2022-11-06T20:44:17.425Z,12.90
2022-11-06T20:46:47.824Z,12.80
2022-11-06T20:49:16.978Z,12.60
2022-11-06T20:52:12.093Z,12.40
2022-11-06T20:54:36.603Z,12.40
2022-11-06T20:57:05.804Z,12.30
2022-11-06T20:59:34.672Z,12.20
2022-11-06T21:02:03.497Z,12.00
2022-11-06T21:04:32.431Z,12.20
2022-11-06T21:07:01.351Z,12.30
2022-11-06T21:09:30.152Z,12.40
2022-11-06T21:12:00.470Z,12.20
2022-11-06T21:14:30.434Z,12.20
2022-11-06T21:16:59.469Z,12.20
2022-11-06T21:19:28.215Z,12.20
2022-11-06T21:21:58.328Z,12.30
2022-11-06T21:24:27.455Z,12.20
2022-11-06T21:26:56.555Z,12.40
2022-11-06T21:29:27.895Z,12.30
2022-11-06T21:31:56.726Z,12.40
2022-11-06T21:34:25.885Z,12.40
2022-11-06T21:36:59.615Z,12.50
2022-11-06T21:39:35.794Z,12.40
2022-11-06T21:42:05.947Z,12.50
2022-11-06T21:44:36.165Z,12.70
2022-11-06T21:47:05.091Z,12.60
2022-11-06T21:49:33.920Z,12.40
2022-11-06T21:52:16.484Z,12.30
2022-11-06T21:55:17.292Z,12.40
2022-11-06T21:57:46.101Z,12.10
2022-11-06T22:00:17.121Z,12.00
2022-11-06T22:02:46.269Z,12.00
2022-11-06T22:05:15.187Z,11.90
2022-11-06T22:07:44.027Z,12.00
2022-11-06T22:10:13.076Z,11.80
2022-11-06T22:12:41.986Z,11.70
2022-11-06T22:15:11.547Z,11.90
2022-11-06T22:17:41.859Z,11.60
2022-11-06T22:20:11.783Z,11.60
2022-11-06T22:22:40.564Z,11.50
2022-11-06T22:25:10.044Z,11.30
2022-11-06T22:27:41.005Z,11.40
2022-11-06T22:30:11.426Z,11.50
2022-11-06T22:32:41.674Z,11.50
2022-11-06T22:35:11.393Z,11.60
2022-11-06T22:37:40.203Z,11.50
2022-11-06T22:40:10.558Z,11.70
2022-11-06T22:42:39.495Z,11.50
2022-11-06T22:45:09.468Z,11.50
2022-11-06T22:47:38.516Z,11.50
2022-11-06T22:50:09.607Z,13.90
2022-11-06T22:52:38.448Z,11.60
2022-11-06T22:55:08.203Z,11.60
2022-11-06T22:57:37.030Z,11.50
2022-11-06T23:00:08.733Z,11.50
2022-11-06T23:02:37.676Z,11.60
2022-11-06T23:05:08.882Z,11.60
2022-11-06T23:07:37.842Z,11.60
2022-11-06T23:10:07.943Z,11.70
2022-11-06T23:12:37.114Z,11.70
2022-11-06T23:15:06.858Z,11.70
2022-11-06T23:17:37.645Z,11.80
2022-11-06T23:20:08.948Z,11.80
2022-11-06T23:22:37.756Z,11.70
2022-11-06T23:25:07.601Z,11.70
2022-11-06T23:27:37.860Z,11.70
2022-11-06T23:30:08.014Z,11.80
2022-11-06T23:32:41.169Z,11.70
2022-11-06T23:35:16.794Z,11.90
2022-11-06T23:37:46.450Z,11.70
2022-11-06T23:40:15.243Z,11.80
2022-11-06T23:42:44.239Z,11.70
2022-11-06T23:45:31.073Z,11.70
2022-11-06T23:48:04.478Z,11.70
2022-11-06T23:50:37.690Z,11.60
2022-11-06T23:53:06.475Z,11.60
2022-11-06T23:55:35.329Z,11.70
2022-11-06T23:58:04.149Z,11.80
